Time;durP1;ratioP1;P1;durP2;ratioP2;P2;SDS_P1;SDS_P2;PMS_P1;PMS_P2;Temp;Humidity;BMP_temperature;BMP_pressure;BME280_temperature;BME280_humidity;BME280_pressure;Samples;Min_cycle;Max_cycle;Signal;HPM_P1;HPM_P2
2022/05/26 00:00:59;;;;;;;59.90;8.38;;;;;;;;;;5108766;28;20701;-73
2022/05/26 00:03:25;;;;;;;66.88;8.63;;;;;;;;;;5106821;27;20563;-72
2022/05/26 00:05:51;;;;;;;56.13;8.50;;;;;;;;;;5114490;27;20232;-72
2022/05/26 00:08:18;;;;;;;55.13;8.90;;;;;;;;;;5112223;27;20192;-73
2022/05/26 00:10:44;;;;;;;49.15;8.23;;;;;;;;;;5116391;27;20188;-73
2022/05/26 00:13:10;;;;;;;51.60;8.63;;;;;;;;;;5109756;28;20555;-72
2022/05/26 00:15:36;;;;;;;57.88;8.80;;;;;;;;;;5111975;28;20563;-73
2022/05/26 00:18:02;;;;;;;65.65;8.32;;;;;;;;;;5109851;27;20189;-72
2022/05/26 00:20:28;;;;;;;62.78;9.40;;;;;;;;;;5116003;27;20299;-73
2022/05/26 00:22:54;;;;;;;64.82;9.20;;;;;;;;;;5107377;27;20189;-74
2022/05/26 00:25:20;;;;;;;53.83;9.18;;;;;;;;;;5109428;28;20557;-73
2022/05/26 00:27:46;;;;;;;52.63;8.90;;;;;;;;;;5109703;27;20315;-73
2022/05/26 00:30:12;;;;;;;62.60;9.13;;;;;;;;;;5109433;28;20208;-72
2022/05/26 00:32:38;;;;;;;47.67;8.60;;;;;;;;;;5128737;27;20201;-74
2022/05/26 00:35:04;;;;;;;49.90;7.80;;;;;;;;;;5109160;27;20272;-73
2022/05/26 00:37:30;;;;;;;50.88;8.63;;;;;;;;;;5109010;28;20217;-73
2022/05/26 00:39:56;;;;;;;50.58;7.90;;;;;;;;;;5111114;28;20181;-73
2022/05/26 00:42:22;;;;;;;53.45;8.25;;;;;;;;;;5105953;28;20231;-72
2022/05/26 00:44:50;;;;;;;59.97;8.02;;;;;;;;;;5109709;28;20676;-74
2022/05/26 00:47:18;;;;;;;69.00;7.95;;;;;;;;;;5107940;28;20184;-72
2022/05/26 00:49:46;;;;;;;46.15;8.05;;;;;;;;;;5109805;27;20186;-75
2022/05/26 00:52:14;;;;;;;45.58;8.52;;;;;;;;;;5109534;28;20169;-71
2022/05/26 00:54:42;;;;;;;53.97;8.35;;;;;;;;;;5110341;27;20254;-71
2022/05/26 00:57:19;;;;;;;45.55;7.45;;;;;;;;;;5110270;28;20656;-71
2022/05/26 00:59:48;;;;;;;53.72;8.00;;;;;;;;;;5124810;27;20193;-72
2022/05/26 01:02:16;;;;;;;56.58;7.70;;;;;;;;;;5108788;28;20698;-72
2022/05/26 01:04:48;;;;;;;41.58;7.43;;;;;;;;;;5107913;28;20205;-72
2022/05/26 01:07:16;;;;;;;45.72;7.78;;;;;;;;;;5108583;28;20190;-72
2022/05/26 01:09:42;;;;;;;40.20;6.82;;;;;;;;;;5103420;28;20638;-73
2022/05/26 01:12:08;;;;;;;48.30;7.65;;;;;;;;;;5108877;28;20203;-72
2022/05/26 01:14:37;;;;;;;46.28;7.57;;;;;;;;;;5107056;28;20188;-71
2022/05/26 01:17:04;;;;;;;50.42;7.85;;;;;;;;;;5109435;28;20215;-72
2022/05/26 01:19:33;;;;;;;54.22;7.80;;;;;;;;;;5107704;28;20272;-72
2022/05/26 01:22:04;;;;;;;45.53;6.80;;;;;;;;;;5116767;27;20184;-72
2022/05/26 01:24:36;;;;;;;40.33;6.90;;;;;;;;;;5120081;27;20209;-72
2022/05/26 01:27:14;;;;;;;38.10;6.38;;;;;;;;;;5108946;27;20272;-71
2022/05/26 01:29:51;;;;;;;40.03;6.43;;;;;;;;;;5107234;28;20189;-73
2022/05/26 01:32:17;;;;;;;35.83;5.80;;;;;;;;;;5107443;28;20281;-73
2022/05/26 01:34:49;;;;;;;35.75;5.38;;;;;;;;;;5107003;28;20720;-72
2022/05/26 01:37:15;;;;;;;42.70;5.25;;;;;;;;;;5116043;27;20173;-72
2022/05/26 01:40:00;;;;;;;31.15;5.80;;;;;;;;;;5107930;28;20701;-72
2022/05/26 01:42:46;;;;;;;34.17;5.18;;;;;;;;;;5113014;27;21709;-73
2022/05/26 01:45:30;;;;;;;21.13;4.07;;;;;;;;;;5106322;28;20221;-73
2022/05/26 01:48:10;;;;;;;28.08;5.40;;;;;;;;;;5108603;28;20205;-72
2022/05/26 01:50:45;;;;;;;29.45;5.60;;;;;;;;;;5108012;28;20204;-72
2022/05/26 01:53:31;;;;;;;22.88;4.25;;;;;;;;;;5107666;28;20257;-73
2022/05/26 01:56:03;;;;;;;32.40;4.90;;;;;;;;;;5106416;28;20200;-72
2022/05/26 01:58:32;;;;;;;22.30;4.50;;;;;;;;;;5108689;27;20192;-73
2022/05/26 02:01:01;;;;;;;31.33;4.75;;;;;;;;;;5104401;27;20664;-72
2022/05/26 02:03:29;;;;;;;27.55;4.57;;;;;;;;;;5108897;28;20200;-73
2022/05/26 02:05:58;;;;;;;24.80;4.63;;;;;;;;;;5104291;28;20292;-73
2022/05/26 02:08:27;;;;;;;32.08;5.43;;;;;;;;;;5109531;28;20222;-72
2022/05/26 02:10:56;;;;;;;31.00;4.47;;;;;;;;;;5107551;28;20185;-72
2022/05/26 02:13:43;;;;;;;28.88;4.95;;;;;;;;;;5105955;28;20261;-72
2022/05/26 02:16:18;;;;;;;24.52;4.57;;;;;;;;;;5095949;28;20189;-71
2022/05/26 02:18:51;;;;;;;28.75;4.80;;;;;;;;;;5107551;28;20184;-74
2022/05/26 02:21:19;;;;;;;31.70;4.60;;;;;;;;;;5115382;28;20188;-72
2022/05/26 02:23:51;;;;;;;28.88;4.68;;;;;;;;;;5108757;28;20219;-72
2022/05/26 02:26:17;;;;;;;24.63;3.92;;;;;;;;;;5107116;28;20217;-72
2022/05/26 02:31:29;;;;;;;23.23;4.07;;;;;;;;;;5105458;28;20192;-73
2022/05/26 02:34:00;;;;;;;21.65;3.63;;;;;;;;;;5107301;28;20287;-73
2022/05/26 02:36:28;;;;;;;29.65;4.20;;;;;;;;;;5105401;28;20672;-74
2022/05/26 02:38:54;;;;;;;24.45;3.88;;;;;;;;;;5106673;28;20185;-72
2022/05/26 02:41:21;;;;;;;21.90;3.80;;;;;;;;;;5105614;28;20680;-74
2022/05/26 02:43:47;;;;;;;24.65;3.88;;;;;;;;;;5108266;28;20188;-73
2022/05/26 02:46:31;;;;;;;24.25;3.92;;;;;;;;;;5107455;28;20209;-72
2022/05/26 02:48:57;;;;;;;18.48;3.60;;;;;;;;;;5107230;28;20189;-72
2022/05/26 02:51:35;;;;;;;14.95;3.00;;;;;;;;;;5106303;28;20177;-74
2022/05/26 02:54:10;;;;;;;17.08;3.08;;;;;;;;;;5105063;28;20180;-73
2022/05/26 02:56:55;;;;;;;21.35;4.03;;;;;;;;;;5117225;28;20192;-72
2022/05/26 02:59:33;;;;;;;18.33;3.20;;;;;;;;;;5111832;28;20268;-72
2022/05/26 03:02:21;;;;;;;15.55;3.25;;;;;;;;;;5089579;28;20181;-73
2022/05/26 03:04:50;;;;;;;12.65;2.90;;;;;;;;;;5120324;27;20236;-72
2022/05/26 03:07:19;;;;;;;13.32;3.33;;;;;;;;;;5109234;28;20177;-74
2022/05/26 03:09:46;;;;;;;21.70;3.38;;;;;;;;;;5106412;28;20292;-72
2022/05/26 03:12:22;;;;;;;19.48;3.13;;;;;;;;;;5107292;28;20555;-73
2022/05/26 03:14:48;;;;;;;19.85;3.20;;;;;;;;;;5117997;28;20637;-73
2022/05/26 03:17:14;;;;;;;17.10;3.47;;;;;;;;;;5106290;28;20189;-74
2022/05/26 03:19:40;;;;;;;20.20;3.30;;;;;;;;;;5106774;28;20196;-73
2022/05/26 03:22:06;;;;;;;19.38;3.50;;;;;;;;;;5107141;28;20185;-73
2022/05/26 03:24:33;;;;;;;17.52;3.10;;;;;;;;;;5113868;28;20204;-72
2022/05/26 03:26:59;;;;;;;17.92;2.90;;;;;;;;;;5106666;28;20513;-73
2022/05/26 03:29:25;;;;;;;14.00;2.72;;;;;;;;;;5108111;28;20969;-74
2022/05/26 03:31:51;;;;;;;16.23;3.35;;;;;;;;;;5125151;27;20177;-73
2022/05/26 03:42:36;;;;;;;14.32;2.60;;;;;;;;;;5086502;28;20271;-73
2022/05/26 03:45:02;;;;;;;18.40;2.90;;;;;;;;;;5110738;27;20205;-73
2022/05/26 03:47:29;;;;;;;11.50;2.58;;;;;;;;;;5111078;28;20181;-73
2022/05/26 03:49:55;;;;;;;16.30;2.80;;;;;;;;;;5107885;27;20234;-72
2022/05/26 03:52:21;;;;;;;11.05;2.25;;;;;;;;;;5115543;27;20186;-73
2022/05/26 03:54:47;;;;;;;17.63;3.22;;;;;;;;;;5107380;27;21000;-73
2022/05/26 03:57:13;;;;;;;10.10;2.40;;;;;;;;;;5110568;28;20189;-73
2022/05/26 03:59:42;;;;;;;11.35;2.75;;;;;;;;;;5109075;28;20197;-74
2022/05/26 04:02:08;;;;;;;12.73;2.97;;;;;;;;;;5111436;28;20193;-73
2022/05/26 04:04:34;;;;;;;13.55;3.03;;;;;;;;;;5108878;27;20262;-73
2022/05/26 04:07:00;;;;;;;15.02;2.92;;;;;;;;;;5111149;28;20653;-72
2022/05/26 04:09:26;;;;;;;15.32;2.90;;;;;;;;;;5108537;28;20182;-73
2022/05/26 04:11:53;;;;;;;15.85;2.72;;;;;;;;;;5107638;27;20189;-74
2022/05/26 04:14:19;;;;;;;9.73;2.30;;;;;;;;;;5109887;28;20196;-74
2022/05/26 04:16:45;;;;;;;9.95;2.20;;;;;;;;;;5110333;27;20209;-71
2022/05/26 04:19:11;;;;;;;10.63;2.25;;;;;;;;;;5111075;28;20181;-73
2022/05/26 04:22:14;;;;;;;15.95;2.47;;;;;;;;;;5109229;27;20975;-72
2022/05/26 04:24:23;;;;;;;8.52;2.17;;;;;;;;;;5108888;28;20602;-73
2022/05/26 04:26:50;;;;;;;10.38;2.08;;;;;;;;;;5108641;28;21031;-73
2022/05/26 04:29:16;;;;;;;13.55;2.10;;;;;;;;;;5109083;27;20638;-72
2022/05/26 04:31:42;;;;;;;12.95;2.20;;;;;;;;;;5107383;27;20205;-74
2022/05/26 04:34:08;;;;;;;11.75;2.30;;;;;;;;;;5108576;27;20181;-74
2022/05/26 04:36:34;;;;;;;12.25;2.00;;;;;;;;;;5107474;27;20666;-73
2022/05/26 04:39:00;;;;;;;8.00;1.90;;;;;;;;;;5103982;28;20650;-73
2022/05/26 04:41:26;;;;;;;10.63;2.35;;;;;;;;;;5108832;27;20228;-74
2022/05/26 04:43:52;;;;;;;14.85;2.38;;;;;;;;;;5110178;28;20189;-72
2022/05/26 04:46:18;;;;;;;10.85;2.17;;;;;;;;;;5112999;27;20205;-73
2022/05/26 04:48:45;;;;;;;17.20;2.65;;;;;;;;;;5110289;28;20185;-72
2022/05/26 04:51:11;;;;;;;9.77;2.33;;;;;;;;;;5098551;28;20182;-74
2022/05/26 04:53:37;;;;;;;10.90;2.35;;;;;;;;;;5108625;28;20188;-72
2022/05/26 04:56:03;;;;;;;16.02;2.35;;;;;;;;;;5106694;28;20197;-72
2022/05/26 04:58:29;;;;;;;9.82;2.17;;;;;;;;;;5114102;27;20250;-71
2022/05/26 05:00:55;;;;;;;17.08;2.88;;;;;;;;;;5113047;27;20196;-71
2022/05/26 05:03:21;;;;;;;16.33;2.97;;;;;;;;;;5117131;27;20831;-71
2022/05/26 05:05:47;;;;;;;8.80;2.33;;;;;;;;;;5107500;27;20212;-72
2022/05/26 05:08:13;;;;;;;13.57;2.70;;;;;;;;;;5110148;28;20272;-72
2022/05/26 05:10:39;;;;;;;11.60;2.38;;;;;;;;;;5106803;28;20235;-72
2022/05/26 05:13:06;;;;;;;9.07;2.03;;;;;;;;;;5108080;28;20206;-71
2022/05/26 05:15:34;;;;;;;11.50;2.33;;;;;;;;;;5109173;27;20215;-72
2022/05/26 05:18:00;;;;;;;11.50;2.45;;;;;;;;;;5111783;27;20192;-73
2022/05/26 05:20:26;;;;;;;12.48;2.40;;;;;;;;;;5106528;28;20197;-74
2022/05/26 05:23:03;;;;;;;14.48;2.60;;;;;;;;;;5108374;28;21033;-72
2022/05/26 05:25:34;;;;;;;8.05;2.25;;;;;;;;;;5104157;28;20316;-72
2022/05/26 05:28:07;;;;;;;21.10;2.63;;;;;;;;;;5110254;28;20187;-73
2022/05/26 05:30:39;;;;;;;15.35;2.60;;;;;;;;;;5105829;27;20224;-72
2022/05/26 05:33:14;;;;;;;13.25;2.60;;;;;;;;;;5108673;27;20629;-75
2022/05/26 05:35:43;;;;;;;13.02;2.45;;;;;;;;;;5108024;28;20667;-74
2022/05/26 05:38:09;;;;;;;12.52;2.95;;;;;;;;;;5104843;28;20197;-74
2022/05/26 05:40:35;;;;;;;10.98;3.17;;;;;;;;;;5105865;27;20208;-73
2022/05/26 05:43:01;;;;;;;14.55;2.90;;;;;;;;;;5107861;28;20189;-73
2022/05/26 05:45:28;;;;;;;15.68;2.60;;;;;;;;;;5110860;27;20974;-74
2022/05/26 05:47:54;;;;;;;8.50;2.35;;;;;;;;;;5109033;28;20645;-74
2022/05/26 05:50:20;;;;;;;18.08;2.75;;;;;;;;;;5108912;27;20182;-74
2022/05/26 05:52:46;;;;;;;10.80;2.80;;;;;;;;;;5107208;28;20242;-74
2022/05/26 05:55:12;;;;;;;13.43;2.90;;;;;;;;;;5108300;28;20198;-73
2022/05/26 05:57:38;;;;;;;12.45;3.03;;;;;;;;;;5107266;28;20276;-72
2022/05/26 06:00:05;;;;;;;14.88;3.33;;;;;;;;;;5107805;28;20643;-72
2022/05/26 06:02:32;;;;;;;14.27;2.78;;;;;;;;;;5107462;28;20197;-71
2022/05/26 06:04:58;;;;;;;9.63;2.67;;;;;;;;;;5108761;28;20208;-74
2022/05/26 06:07:24;;;;;;;11.63;2.72;;;;;;;;;;5106196;28;20184;-72
2022/05/26 06:09:51;;;;;;;14.02;2.95;;;;;;;;;;5107391;28;20649;-72
2022/05/26 06:12:18;;;;;;;13.27;3.03;;;;;;;;;;5106021;28;20643;-73
2022/05/26 06:14:44;;;;;;;11.63;2.70;;;;;;;;;;5107227;28;20189;-73
2022/05/26 06:17:11;;;;;;;11.65;2.95;;;;;;;;;;5104590;28;20192;-72
2022/05/26 06:19:38;;;;;;;19.48;3.13;;;;;;;;;;5106074;28;20186;-72
2022/05/26 06:22:15;;;;;;;16.40;2.72;;;;;;;;;;5106979;28;20571;-71
2022/05/26 06:24:41;;;;;;;14.27;2.92;;;;;;;;;;5105609;28;20704;-73
2022/05/26 06:29:54;;;;;;;9.13;2.70;;;;;;;;;;5106278;28;20189;-73
2022/05/26 06:37:52;;;;;;;13.30;3.00;;;;;;;;;;5105648;28;20196;-74
2022/05/26 06:40:18;;;;;;;18.90;2.97;;;;;;;;;;5104941;28;20189;-72
2022/05/26 06:42:45;;;;;;;11.20;3.03;;;;;;;;;;5111302;28;20220;-75
2022/05/26 06:45:11;;;;;;;14.10;2.78;;;;;;;;;;5118756;28;20208;-74
2022/05/26 06:47:38;;;;;;;21.17;3.83;;;;;;;;;;5112818;28;21065;-74
2022/05/26 06:50:04;;;;;;;13.77;3.58;;;;;;;;;;5115783;28;20220;-70
2022/05/26 06:52:30;;;;;;;13.90;2.90;;;;;;;;;;5105999;28;20185;-73
2022/05/26 06:54:58;;;;;;;18.73;3.53;;;;;;;;;;5110618;28;20209;-73
2022/05/26 06:57:25;;;;;;;13.77;3.35;;;;;;;;;;5115927;28;20641;-72
2022/05/26 06:59:51;;;;;;;8.15;2.90;;;;;;;;;;5105947;28;20546;-72
2022/05/26 07:02:18;;;;;;;16.17;3.47;;;;;;;;;;5105171;28;20185;-72
2022/05/26 07:04:44;;;;;;;14.32;3.20;;;;;;;;;;5108678;28;20205;-73
2022/05/26 07:07:12;;;;;;;18.02;3.50;;;;;;;;;;5108851;28;20267;-73
2022/05/26 07:09:38;;;;;;;12.68;3.40;;;;;;;;;;5110321;28;20181;-73
2022/05/26 07:12:05;;;;;;;13.30;3.00;;;;;;;;;;5105082;27;20181;-73
2022/05/26 07:14:31;;;;;;;11.65;3.70;;;;;;;;;;5112108;28;20236;-73
2022/05/26 07:16:57;;;;;;;18.52;3.90;;;;;;;;;;5111966;27;20181;-73
2022/05/26 07:19:23;;;;;;;17.15;3.22;;;;;;;;;;5111305;27;20253;-73
2022/05/26 07:21:49;;;;;;;20.02;3.67;;;;;;;;;;5109553;27;20238;-72
2022/05/26 07:24:20;;;;;;;15.98;3.55;;;;;;;;;;5117560;27;20196;-72
2022/05/26 07:26:47;;;;;;;13.90;3.22;;;;;;;;;;5108166;27;20197;-74
2022/05/26 07:29:14;;;;;;;14.30;3.40;;;;;;;;;;5111185;27;20618;-73
2022/05/26 07:31:40;;;;;;;13.77;2.88;;;;;;;;;;5125566;27;20896;-73
2022/05/26 07:34:06;;;;;;;14.57;2.85;;;;;;;;;;5106936;27;20189;-73
2022/05/26 07:42:03;;;;;;;15.75;3.63;;;;;;;;;;5112087;27;20299;-72
2022/05/26 07:44:32;;;;;;;13.40;3.05;;;;;;;;;;5109265;27;20177;-73
2022/05/26 07:46:58;;;;;;;18.67;2.90;;;;;;;;;;5111089;28;20186;-73
2022/05/26 07:49:24;;;;;;;10.25;3.10;;;;;;;;;;5109308;28;20181;-74
2022/05/26 07:51:51;;;;;;;14.40;3.30;;;;;;;;;;5110827;27;20197;-72
2022/05/26 07:54:17;;;;;;;12.73;3.13;;;;;;;;;;5109283;28;20650;-73
2022/05/26 07:56:43;;;;;;;14.73;3.05;;;;;;;;;;5110361;27;20219;-73
2022/05/26 07:59:09;;;;;;;17.15;3.25;;;;;;;;;;5108414;28;20188;-73
2022/05/26 08:01:36;;;;;;;12.07;3.10;;;;;;;;;;5110474;28;20226;-72
2022/05/26 08:04:05;;;;;;;14.85;3.28;;;;;;;;;;5109532;28;20196;-73
2022/05/26 08:06:31;;;;;;;14.75;3.17;;;;;;;;;;5108397;28;20221;-73
2022/05/26 08:08:58;;;;;;;15.52;3.70;;;;;;;;;;5116767;27;20573;-74
2022/05/26 08:11:24;;;;;;;17.05;3.17;;;;;;;;;;5111291;27;20177;-75
2022/05/26 08:13:50;;;;;;;13.48;2.97;;;;;;;;;;5112677;27;20185;-73
2022/05/26 08:16:16;;;;;;;12.35;3.00;;;;;;;;;;5110670;28;20182;-73
2022/05/26 08:18:42;;;;;;;13.48;2.80;;;;;;;;;;5108877;27;20260;-72
2022/05/26 08:21:12;;;;;;;17.48;3.85;;;;;;;;;;5111588;27;20226;-73
2022/05/26 08:23:39;;;;;;;12.85;3.05;;;;;;;;;;5108123;27;20281;-74
2022/05/26 08:26:05;;;;;;;16.95;3.30;;;;;;;;;;5103486;28;20216;-73
2022/05/26 08:28:31;;;;;;;12.65;2.97;;;;;;;;;;5116048;27;20185;-73
2022/05/26 08:30:59;;;;;;;17.08;3.25;;;;;;;;;;5111027;27;20898;-73
2022/05/26 08:33:25;;;;;;;10.43;2.85;;;;;;;;;;5108245;28;20745;-71
2022/05/26 08:35:59;;;;;;;17.73;3.67;;;;;;;;;;5117491;27;20192;-72
2022/05/26 08:38:25;;;;;;;16.40;4.18;;;;;;;;;;5112851;27;20246;-75
2022/05/26 08:40:51;;;;;;;12.75;3.53;;;;;;;;;;5130985;27;20185;-73
2022/05/26 08:43:20;;;;;;;16.35;3.38;;;;;;;;;;5108730;27;20181;-76
2022/05/26 08:45:49;;;;;;;14.85;4.32;;;;;;;;;;5126677;27;20200;-73
2022/05/26 08:48:53;;;;;;;12.10;3.00;;;;;;;;;;5119828;27;20195;-72
2022/05/26 08:51:24;;;;;;;11.45;3.15;;;;;;;;;;5070537;28;20190;-74
2022/05/26 08:53:51;;;;;;;17.75;3.78;;;;;;;;;;5083386;28;20185;-73
2022/05/26 08:56:21;;;;;;;13.90;3.25;;;;;;;;;;5096573;28;20644;-72
2022/05/26 08:58:48;;;;;;;15.40;3.42;;;;;;;;;;5103866;27;20633;-74
2022/05/26 09:01:16;;;;;;;20.05;3.80;;;;;;;;;;5106866;28;20314;-74
2022/05/26 09:03:42;;;;;;;19.55;3.58;;;;;;;;;;5116439;27;20208;-75
2022/05/26 09:06:08;;;;;;;12.85;3.05;;;;;;;;;;5108719;28;20200;-74
2022/05/26 09:14:28;;;;;;;15.63;3.38;;;;;;;;;;5115675;27;20610;-75
2022/05/26 09:16:59;;;;;;;21.77;4.32;;;;;;;;;;5107896;27;20648;-73
2022/05/26 09:19:29;;;;;;;15.43;3.47;;;;;;;;;;5109815;27;20215;-74
2022/05/26 09:21:56;;;;;;;20.10;4.40;;;;;;;;;;5105498;28;20197;-73
2022/05/26 09:24:26;;;;;;;15.88;3.35;;;;;;;;;;5110043;28;20207;-74
2022/05/26 09:26:54;;;;;;;13.90;3.28;;;;;;;;;;5109275;27;20188;-73
2022/05/26 09:29:23;;;;;;;16.42;3.67;;;;;;;;;;5107406;28;20699;-75
2022/05/26 09:31:50;;;;;;;16.42;4.38;;;;;;;;;;5109349;27;20193;-74
2022/05/26 09:34:18;;;;;;;19.90;4.00;;;;;;;;;;5110109;28;20185;-74
2022/05/26 09:36:46;;;;;;;17.15;3.55;;;;;;;;;;5110136;27;20193;-73
2022/05/26 09:39:13;;;;;;;13.82;3.83;;;;;;;;;;5110103;28;20193;-73
2022/05/26 09:41:50;;;;;;;18.27;3.72;;;;;;;;;;5108032;28;20346;-76
2022/05/26 09:44:35;;;;;;;15.35;3.92;;;;;;;;;;5109028;27;20272;-73
2022/05/26 09:47:20;;;;;;;18.30;3.97;;;;;;;;;;5107619;28;20197;-73
2022/05/26 09:49:49;;;;;;;17.23;3.65;;;;;;;;;;5109459;28;20184;-73
2022/05/26 09:52:17;;;;;;;16.88;3.60;;;;;;;;;;5105316;28;20181;-73
2022/05/26 09:54:43;;;;;;;16.13;3.40;;;;;;;;;;5114640;27;20645;-71
2022/05/26 09:57:28;;;;;;;17.52;3.65;;;;;;;;;;5100446;28;20220;-74
2022/05/26 09:59:54;;;;;;;15.70;3.85;;;;;;;;;;5107359;28;20238;-73
2022/05/26 10:02:38;;;;;;;14.80;3.45;;;;;;;;;;5106365;28;20185;-73
2022/05/26 10:05:19;;;;;;;14.60;3.55;;;;;;;;;;5107323;28;20219;-73
2022/05/26 10:07:59;;;;;;;18.80;3.40;;;;;;;;;;5108320;27;20192;-73
2022/05/26 10:10:28;;;;;;;19.90;3.58;;;;;;;;;;5129639;27;20188;-70
2022/05/26 10:13:17;;;;;;;11.55;3.83;;;;;;;;;;5111357;28;20179;-72
2022/05/26 10:15:50;;;;;;;14.48;3.10;;;;;;;;;;5077476;28;20197;-72
2022/05/26 10:18:22;;;;;;;21.55;4.22;;;;;;;;;;5115480;27;20195;-75
2022/05/26 10:21:07;;;;;;;15.82;3.08;;;;;;;;;;5112446;27;20196;-74
2022/05/26 10:24:02;;;;;;;17.05;3.75;;;;;;;;;;5109521;27;20611;-75
2022/05/26 10:26:47;;;;;;;13.63;3.13;;;;;;;;;;5111001;28;20209;-74
2022/05/26 10:29:31;;;;;;;20.10;3.70;;;;;;;;;;5107938;28;20176;-73
2022/05/26 10:32:14;;;;;;;15.93;3.35;;;;;;;;;;5108650;28;20199;-74
2022/05/26 10:34:43;;;;;;;12.25;3.38;;;;;;;;;;5107597;28;20257;-75
2022/05/26 10:37:15;;;;;;;18.15;3.78;;;;;;;;;;5113975;28;20557;-75
2022/05/26 10:40:03;;;;;;;12.80;3.40;;;;;;;;;;5112087;28;20612;-74
2022/05/26 10:42:31;;;;;;;14.82;3.15;;;;;;;;;;5113455;27;20228;-73
2022/05/26 10:45:01;;;;;;;17.00;3.17;;;;;;;;;;5115152;27;20205;-74
2022/05/26 10:47:47;;;;;;;16.17;3.50;;;;;;;;;;5115151;27;20188;-73
2022/05/26 10:50:18;;;;;;;21.45;3.78;;;;;;;;;;5112578;27;20726;-74
2022/05/26 10:52:47;;;;;;;22.27;4.15;;;;;;;;;;5119110;27;20230;-74
2022/05/26 10:55:22;;;;;;;18.75;3.75;;;;;;;;;;5118591;27;20552;-74
2022/05/26 10:57:52;;;;;;;18.38;4.10;;;;;;;;;;5118382;27;20747;-74
2022/05/26 11:00:20;;;;;;;10.10;3.47;;;;;;;;;;5122702;27;20188;-73
2022/05/26 11:02:52;;;;;;;15.68;3.85;;;;;;;;;;5108608;27;20200;-73
2022/05/26 11:05:27;;;;;;;17.85;4.32;;;;;;;;;;5116424;27;20677;-74
2022/05/26 11:08:05;;;;;;;16.88;3.85;;;;;;;;;;5115204;27;20207;-74
2022/05/26 11:10:44;;;;;;;16.38;4.00;;;;;;;;;;5110554;27;20188;-74
2022/05/26 11:13:36;;;;;;;14.30;3.50;;;;;;;;;;5111734;28;20185;-74
2022/05/26 11:18:52;;;;;;;15.80;3.90;;;;;;;;;;5106913;27;20208;-73
2022/05/26 11:21:19;;;;;;;17.15;4.20;;;;;;;;;;5113586;27;20272;-73
2022/05/26 11:23:45;;;;;;;25.40;5.95;;;;;;;;;;5122905;27;20239;-74
2022/05/26 11:26:11;;;;;;;21.70;4.13;;;;;;;;;;5110367;28;20201;-74
2022/05/26 11:28:40;;;;;;;19.92;4.78;;;;;;;;;;5114004;27;20182;-76
2022/05/26 11:36:48;;;;;;;13.65;4.10;;;;;;;;;;5109457;27;20307;-75
2022/05/26 11:39:20;;;;;;;18.98;3.70;;;;;;;;;;5114549;27;20217;-74
2022/05/26 11:41:51;;;;;;;13.98;3.92;;;;;;;;;;5110274;28;20221;-75
2022/05/26 11:44:31;;;;;;;20.45;4.03;;;;;;;;;;5110400;27;20260;-74
2022/05/26 11:47:23;;;;;;;16.13;3.50;;;;;;;;;;5111080;28;20189;-74
2022/05/26 11:49:51;;;;;;;16.52;4.10;;;;;;;;;;5112072;27;20258;-74
2022/05/26 11:52:34;;;;;;;19.50;4.10;;;;;;;;;;5106970;28;20194;-74
2022/05/26 11:55:02;;;;;;;12.35;3.13;;;;;;;;;;5123433;27;20196;-73
2022/05/26 11:57:43;;;;;;;17.05;4.03;;;;;;;;;;5099694;27;20180;-72
2022/05/26 12:00:16;;;;;;;10.02;3.50;;;;;;;;;;5127378;27;20212;-74
2022/05/26 12:02:47;;;;;;;21.02;4.00;;;;;;;;;;5110419;27;20189;-74
2022/05/26 12:05:42;;;;;;;20.15;4.20;;;;;;;;;;5115738;27;20205;-74
2022/05/26 12:08:29;;;;;;;15.75;3.60;;;;;;;;;;5112986;27;20205;-73
2022/05/26 12:10:57;;;;;;;17.77;3.90;;;;;;;;;;5137519;27;20188;-75
2022/05/26 12:13:23;;;;;;;20.23;3.90;;;;;;;;;;5109821;28;20174;-73
2022/05/26 12:16:06;;;;;;;12.57;3.70;;;;;;;;;;5110109;28;20188;-72
2022/05/26 12:18:40;;;;;;;18.55;3.58;;;;;;;;;;5112213;27;20243;-73
2022/05/26 12:21:16;;;;;;;14.85;3.38;;;;;;;;;;5105195;28;20185;-73
2022/05/26 12:23:43;;;;;;;14.50;3.65;;;;;;;;;;5124981;27;20192;-72
2022/05/26 12:26:32;;;;;;;12.90;3.00;;;;;;;;;;5112783;27;20704;-73
2022/05/26 12:29:24;;;;;;;13.07;3.85;;;;;;;;;;5102451;28;20201;-73
2022/05/26 12:32:09;;;;;;;14.68;3.67;;;;;;;;;;5107540;28;20230;-74
2022/05/26 12:34:42;;;;;;;16.75;3.20;;;;;;;;;;5131401;27;20521;-73
2022/05/26 12:37:17;;;;;;;22.27;4.18;;;;;;;;;;5111052;27;20676;-74
2022/05/26 12:39:58;;;;;;;15.27;3.13;;;;;;;;;;5108602;28;20188;-74
2022/05/26 12:42:30;;;;;;;18.55;3.65;;;;;;;;;;5120947;27;20229;-74
2022/05/26 12:45:15;;;;;;;14.25;3.08;;;;;;;;;;5110990;28;20295;-75
2022/05/26 12:47:41;;;;;;;18.42;3.47;;;;;;;;;;5118175;27;20250;-74
2022/05/26 12:50:21;;;;;;;15.70;3.72;;;;;;;;;;5108581;28;20653;-74
2022/05/26 12:52:57;;;;;;;21.55;4.50;;;;;;;;;;5100322;27;20536;-74
2022/05/26 12:55:55;;;;;;;13.68;3.60;;;;;;;;;;5115712;27;20196;-75
2022/05/26 12:58:27;;;;;;;11.40;3.33;;;;;;;;;;5068878;27;20272;-74
2022/05/26 13:00:56;;;;;;;12.43;3.55;;;;;;;;;;5111760;27;20253;-74
2022/05/26 13:03:25;;;;;;;14.60;3.80;;;;;;;;;;5106373;28;20227;-74
2022/05/26 13:05:59;;;;;;;15.07;3.33;;;;;;;;;;5105750;28;20215;-77
2022/05/26 13:08:26;;;;;;;14.85;3.92;;;;;;;;;;5114428;27;20219;-75
2022/05/26 13:10:55;;;;;;;9.23;3.35;;;;;;;;;;5118651;27;20169;-75
2022/05/26 13:13:40;;;;;;;14.52;4.07;;;;;;;;;;5113279;27;20178;-74
2022/05/26 13:16:24;;;;;;;14.95;3.63;;;;;;;;;;5115997;27;20189;-74
2022/05/26 13:18:51;;;;;;;12.80;3.55;;;;;;;;;;5106510;28;20197;-74
2022/05/26 13:21:18;;;;;;;15.27;2.80;;;;;;;;;;5107663;27;20587;-74
2022/05/26 13:23:44;;;;;;;14.02;3.25;;;;;;;;;;5109462;27;20185;-74
2022/05/26 13:26:12;;;;;;;15.00;3.30;;;;;;;;;;5113263;27;20205;-74
2022/05/26 13:28:40;;;;;;;10.93;3.03;;;;;;;;;;5115151;27;20181;-73
2022/05/26 13:33:55;;;;;;;12.60;3.17;;;;;;;;;;5121429;27;20183;-73
2022/05/26 13:36:41;;;;;;;15.43;3.03;;;;;;;;;;5119105;27;20185;-75
2022/05/26 13:39:12;;;;;;;14.75;3.70;;;;;;;;;;5129285;27;20196;-76
2022/05/26 13:41:39;;;;;;;15.13;3.20;;;;;;;;;;5124191;27;20220;-73
2022/05/26 13:44:07;;;;;;;12.38;2.40;;;;;;;;;;5114375;27;20551;-74
2022/05/26 13:46:45;;;;;;;16.88;3.28;;;;;;;;;;5119028;27;20224;-74
2022/05/26 13:49:18;;;;;;;13.65;3.03;;;;;;;;;;5108286;27;20185;-74
2022/05/26 13:51:46;;;;;;;16.45;2.88;;;;;;;;;;5106540;28;20213;-73
2022/05/26 13:54:18;;;;;;;14.30;2.97;;;;;;;;;;5112860;27;20196;-74
2022/05/26 13:56:45;;;;;;;14.93;2.65;;;;;;;;;;5105300;27;20189;-74
2022/05/26 13:59:12;;;;;;;15.93;3.20;;;;;;;;;;5094007;27;20195;-74
2022/05/26 14:01:47;;;;;;;14.93;2.92;;;;;;;;;;5125427;27;20524;-74
2022/05/26 14:04:22;;;;;;;12.68;3.05;;;;;;;;;;5108237;28;20191;-74
2022/05/26 14:06:48;;;;;;;5.35;2.00;;;;;;;;;;5109641;27;20211;-72
2022/05/26 14:09:23;;;;;;;11.55;2.75;;;;;;;;;;5109054;28;20220;-72
2022/05/26 14:12:03;;;;;;;12.30;2.95;;;;;;;;;;5116437;27;20664;-74
2022/05/26 14:14:38;;;;;;;11.80;3.13;;;;;;;;;;5108638;28;20181;-73
2022/05/26 14:17:06;;;;;;;15.27;3.03;;;;;;;;;;5106255;27;20270;-74
2022/05/26 14:19:33;;;;;;;13.93;2.85;;;;;;;;;;5106955;28;20206;-72
2022/05/26 14:21:59;;;;;;;10.07;2.60;;;;;;;;;;5108107;28;20189;-73
2022/05/26 14:24:25;;;;;;;8.68;2.45;;;;;;;;;;5108071;27;20296;-74
2022/05/26 14:27:01;;;;;;;12.02;2.60;;;;;;;;;;5123259;27;20205;-73
2022/05/26 14:29:27;;;;;;;10.52;2.13;;;;;;;;;;5111488;28;20199;-73
2022/05/26 14:31:57;;;;;;;8.75;2.25;;;;;;;;;;5105463;28;20191;-77
2022/05/26 14:34:33;;;;;;;12.77;2.63;;;;;;;;;;5105057;28;22130;-76
2022/05/26 14:37:00;;;;;;;8.70;2.00;;;;;;;;;;5105765;28;20680;-76
2022/05/26 14:39:26;;;;;;;22.83;2.75;;;;;;;;;;5106148;28;20193;-76
2022/05/26 14:41:53;;;;;;;12.82;2.10;;;;;;;;;;5105685;28;20605;-73
2022/05/26 14:44:19;;;;;;;13.63;1.92;;;;;;;;;;5108455;28;20187;-75
2022/05/26 14:46:45;;;;;;;9.25;2.00;;;;;;;;;;5107654;28;20223;-74
2022/05/26 14:49:11;;;;;;;10.05;1.67;;;;;;;;;;5110698;28;20238;-74
2022/05/26 14:51:38;;;;;;;9.82;1.65;;;;;;;;;;5104165;28;20192;-74
2022/05/26 14:56:49;;;;;;;9.88;1.85;;;;;;;;;;5104513;28;20196;-74
2022/05/26 14:59:18;;;;;;;15.25;2.40;;;;;;;;;;5107336;28;20638;-74
2022/05/26 15:01:45;;;;;;;12.77;2.40;;;;;;;;;;5104489;28;20226;-74
2022/05/26 15:04:11;;;;;;;12.15;2.50;;;;;;;;;;5106531;28;20173;-74
2022/05/26 15:06:42;;;;;;;14.95;3.10;;;;;;;;;;5104662;28;20223;-77
2022/05/26 15:09:10;;;;;;;11.57;2.60;;;;;;;;;;5107408;28;20185;-73
2022/05/26 15:11:36;;;;;;;15.73;2.53;;;;;;;;;;5105017;28;20187;-74
2022/05/26 15:14:02;;;;;;;15.15;2.83;;;;;;;;;;5107515;28;20181;-74
2022/05/26 15:16:29;;;;;;;9.43;2.75;;;;;;;;;;5107209;28;20263;-76
2022/05/26 15:18:55;;;;;;;20.77;3.20;;;;;;;;;;5107543;28;20235;-73
2022/05/26 15:21:21;;;;;;;13.07;3.35;;;;;;;;;;5105291;28;20238;-73
2022/05/26 15:23:48;;;;;;;16.83;2.80;;;;;;;;;;5103349;28;20189;-75
2022/05/26 15:26:16;;;;;;;19.98;3.60;;;;;;;;;;5105692;28;20241;-74
2022/05/26 15:28:44;;;;;;;10.90;2.53;;;;;;;;;;5108850;28;20186;-74
2022/05/26 15:31:10;;;;;;;19.13;3.70;;;;;;;;;;5108870;28;20219;-72
2022/05/26 15:33:36;;;;;;;11.48;3.10;;;;;;;;;;5111571;28;20249;-73